MUHA/HAV METAR and TAF weather

Enter ICAO airport designator
Station Type Date Time Source
MUHA METAR 2021/07/30 23:55 UTC NOAA

MUHA 302355Z VRB01KT 9000 FEW020CB SCT030 28/22 Q1017


Station Type Date Time Source
MUHA Decoded METAR 2021/07/30 23:55 UTC NOAA

Aeropuerto Jose Marti, Rancho-Boyeros, Habana, Cuba (MUHA) 22-59N 082-24W 75M
Jul 30, 2021 - 07:55 PM EDT / 2021.07.30 2355 UTC
Wind: Variable at 1 MPH (1 KT):0
Visibility: 5 mile(s):0
Sky conditions: partly cloudy
Weather: Cumulonimbus clouds observed
Temperature: 82 F (28 C)
Dew Point: 71 F (22 C)
Relative Humidity: 69%
Pressure (altimeter): 30.03 in. Hg (1017 hPa)
ob: MUHA 302355Z VRB01KT 9000 FEW020CB SCT030 28/22 Q1017
cycle: 0

Station Type Date Time Source
MUHA TAF 2021/07/30 18:03 UTC NOAA

TAF MUHA 301700Z 3018/3118 VRB03KT 9000 SCT030
BECMG 3102/3104 FEW030

Example: see airport list